sensor_id;sensor_type;location;lat;lon;timestamp;P1;durP1;ratioP1;P2;durP2;ratioP2
76964;SDS011;65903;51.452;7.198;2023-05-07T00:00:38;6.15;;;4.10;;
76964;SDS011;65903;51.452;7.198;2023-05-07T00:01:39;6.28;;;3.67;;
76964;SDS011;65903;51.452;7.198;2023-05-07T00:02:42;5.80;;;4.22;;
76964;SDS011;65903;51.452;7.198;2023-05-07T00:03:45;4.97;;;3.72;;
76964;SDS011;65903;51.452;7.198;2023-05-07T00:04:48;6.13;;;4.03;;
76964;SDS011;65903;51.452;7.198;2023-05-07T00:05:54;5.43;;;3.83;;
76964;SDS011;65903;51.452;7.198;2023-05-07T00:06:58;5.60;;;4.47;;
76964;SDS011;65903;51.452;7.198;2023-05-07T00:08:04;6.05;;;4.32;;
76964;SDS011;65903;51.452;7.198;2023-05-07T00:09:05;5.25;;;4.03;;
76964;SDS011;65903;51.452;7.198;2023-05-07T00:10:06;6.15;;;4.30;;
76964;SDS011;65903;51.452;7.198;2023-05-07T00:11:08;6.22;;;3.80;;
76964;SDS011;65903;51.452;7.198;2023-05-07T00:12:11;6.03;;;3.95;;
76964;SDS011;65903;51.452;7.198;2023-05-07T00:13:16;7.10;;;4.43;;
76964;SDS011;65903;51.452;7.198;2023-05-07T00:15:20;4.55;;;3.65;;
76964;SDS011;65903;51.452;7.198;2023-05-07T00:16:26;5.85;;;4.20;;
76964;SDS011;65903;51.452;7.198;2023-05-07T00:17:30;6.05;;;4.22;;
76964;SDS011;65903;51.452;7.198;2023-05-07T00:18:35;6.22;;;4.22;;
76964;SDS011;65903;51.452;7.198;2023-05-07T00:19:36;4.82;;;3.75;;
76964;SDS011;65903;51.452;7.198;2023-05-07T00:20:37;6.78;;;3.95;;
76964;SDS011;65903;51.452;7.198;2023-05-07T00:21:38;6.68;;;4.70;;
76964;SDS011;65903;51.452;7.198;2023-05-07T00:22:38;6.20;;;4.68;;
76964;SDS011;65903;51.452;7.198;2023-05-07T00:23:39;6.65;;;4.72;;
76964;SDS011;65903;51.452;7.198;2023-05-07T00:24:42;6.68;;;4.40;;
76964;SDS011;65903;51.452;7.198;2023-05-07T00:25:46;8.13;;;4.82;;
76964;SDS011;65903;51.452;7.198;2023-05-07T00:26:51;6.85;;;5.18;;
76964;SDS011;65903;51.452;7.198;2023-05-07T00:27:53;5.38;;;4.53;;
76964;SDS011;65903;51.452;7.198;2023-05-07T00:28:56;7.00;;;4.03;;
76964;SDS011;65903;51.452;7.198;2023-05-07T00:29:59;7.47;;;4.80;;
76964;SDS011;65903;51.452;7.198;2023-05-07T00:31:02;7.72;;;4.45;;
76964;SDS011;65903;51.452;7.198;2023-05-07T00:32:03;7.43;;;4.97;;
76964;SDS011;65903;51.452;7.198;2023-05-07T00:33:04;7.75;;;4.75;;
76964;SDS011;65903;51.452;7.198;2023-05-07T00:34:07;6.63;;;4.60;;
76964;SDS011;65903;51.452;7.198;2023-05-07T00:35:10;6.38;;;4.70;;
76964;SDS011;65903;51.452;7.198;2023-05-07T00:36:11;6.60;;;4.88;;
76964;SDS011;65903;51.452;7.198;2023-05-07T00:37:12;7.68;;;4.90;;
76964;SDS011;65903;51.452;7.198;2023-05-07T00:38:17;7.18;;;4.50;;
76964;SDS011;65903;51.452;7.198;2023-05-07T00:39:18;7.00;;;4.90;;
76964;SDS011;65903;51.452;7.198;2023-05-07T00:40:19;7.55;;;5.35;;
76964;SDS011;65903;51.452;7.198;2023-05-07T00:41:20;6.53;;;4.93;;
76964;SDS011;65903;51.452;7.198;2023-05-07T00:42:20;8.07;;;5.03;;
76964;SDS011;65903;51.452;7.198;2023-05-07T00:43:21;6.68;;;4.97;;
76964;SDS011;65903;51.452;7.198;2023-05-07T00:44:24;7.03;;;5.20;;
76964;SDS011;65903;51.452;7.198;2023-05-07T00:45:28;7.40;;;4.63;;
76964;SDS011;65903;51.452;7.198;2023-05-07T00:46:31;5.88;;;4.97;;
76964;SDS011;65903;51.452;7.198;2023-05-07T00:47:33;6.22;;;4.65;;
76964;SDS011;65903;51.452;7.198;2023-05-07T00:48:36;10.55;;;5.25;;
76964;SDS011;65903;51.452;7.198;2023-05-07T00:49:43;7.00;;;4.82;;
76964;SDS011;65903;51.452;7.198;2023-05-07T00:50:44;6.70;;;4.85;;
76964;SDS011;65903;51.452;7.198;2023-05-07T00:51:46;7.72;;;5.45;;
76964;SDS011;65903;51.452;7.198;2023-05-07T00:52:49;7.03;;;4.85;;
76964;SDS011;65903;51.452;7.198;2023-05-07T00:53:52;7.10;;;4.93;;
76964;SDS011;65903;51.452;7.198;2023-05-07T00:54:53;7.60;;;5.13;;
76964;SDS011;65903;51.452;7.198;2023-05-07T00:55:57;7.32;;;5.15;;
76964;SDS011;65903;51.452;7.198;2023-05-07T00:57:10;7.22;;;4.60;;
76964;SDS011;65903;51.452;7.198;2023-05-07T00:58:13;7.60;;;5.22;;
76964;SDS011;65903;51.452;7.198;2023-05-07T00:59:16;5.88;;;4.53;;
76964;SDS011;65903;51.452;7.198;2023-05-07T01:00:20;6.88;;;4.65;;
76964;SDS011;65903;51.452;7.198;2023-05-07T01:01:24;8.10;;;5.28;;
76964;SDS011;65903;51.452;7.198;2023-05-07T01:02:25;6.25;;;4.88;;
76964;SDS011;65903;51.452;7.198;2023-05-07T01:03:29;6.97;;;4.53;;
76964;SDS011;65903;51.452;7.198;2023-05-07T01:04:32;7.88;;;4.78;;
76964;SDS011;65903;51.452;7.198;2023-05-07T01:05:38;6.20;;;4.93;;
76964;SDS011;65903;51.452;7.198;2023-05-07T01:06:39;8.73;;;4.63;;
76964;SDS011;65903;51.452;7.198;2023-05-07T01:07:42;6.65;;;4.63;;
76964;SDS011;65903;51.452;7.198;2023-05-07T01:08:43;8.40;;;5.20;;
76964;SDS011;65903;51.452;7.198;2023-05-07T01:09:44;5.97;;;4.82;;
76964;SDS011;65903;51.452;7.198;2023-05-07T01:10:48;9.15;;;5.32;;
76964;SDS011;65903;51.452;7.198;2023-05-07T01:11:49;8.55;;;6.05;;
76964;SDS011;65903;51.452;7.198;2023-05-07T01:12:53;8.57;;;5.85;;
76964;SDS011;65903;51.452;7.198;2023-05-07T01:13:56;9.25;;;5.63;;
76964;SDS011;65903;51.452;7.198;2023-05-07T01:15:04;10.20;;;5.25;;
76964;SDS011;65903;51.452;7.198;2023-05-07T01:16:10;7.53;;;5.45;;
76964;SDS011;65903;51.452;7.198;2023-05-07T01:17:16;7.70;;;5.60;;
76964;SDS011;65903;51.452;7.198;2023-05-07T01:18:19;8.85;;;5.70;;
76964;SDS011;65903;51.452;7.198;2023-05-07T01:19:23;11.52;;;6.43;;
76964;SDS011;65903;51.452;7.198;2023-05-07T01:20:23;8.52;;;5.63;;
76964;SDS011;65903;51.452;7.198;2023-05-07T01:21:27;8.13;;;5.80;;
76964;SDS011;65903;51.452;7.198;2023-05-07T01:22:36;8.82;;;5.78;;
76964;SDS011;65903;51.452;7.198;2023-05-07T01:23:39;7.88;;;4.97;;
76964;SDS011;65903;51.452;7.198;2023-05-07T01:24:45;9.45;;;5.28;;
76964;SDS011;65903;51.452;7.198;2023-05-07T01:25:52;7.18;;;5.38;;
76964;SDS011;65903;51.452;7.198;2023-05-07T01:26:58;8.15;;;5.93;;
76964;SDS011;65903;51.452;7.198;2023-05-07T01:28:01;10.02;;;6.10;;
76964;SDS011;65903;51.452;7.198;2023-05-07T01:29:06;9.80;;;5.45;;
76964;SDS011;65903;51.452;7.198;2023-05-07T01:30:11;8.23;;;5.03;;
76964;SDS011;65903;51.452;7.198;2023-05-07T01:31:14;7.15;;;6.03;;
76964;SDS011;65903;51.452;7.198;2023-05-07T01:32:21;8.57;;;5.45;;
76964;SDS011;65903;51.452;7.198;2023-05-07T01:33:25;8.93;;;5.97;;
76964;SDS011;65903;51.452;7.198;2023-05-07T01:34:30;7.65;;;5.72;;
76964;SDS011;65903;51.452;7.198;2023-05-07T01:35:38;7.82;;;5.82;;
76964;SDS011;65903;51.452;7.198;2023-05-07T01:36:44;11.25;;;6.28;;
76964;SDS011;65903;51.452;7.198;2023-05-07T01:37:50;9.00;;;5.65;;
76964;SDS011;65903;51.452;7.198;2023-05-07T01:38:53;9.48;;;5.88;;
76964;SDS011;65903;51.452;7.198;2023-05-07T01:39:56;9.13;;;5.88;;
76964;SDS011;65903;51.452;7.198;2023-05-07T01:40:58;10.57;;;6.13;;
76964;SDS011;65903;51.452;7.198;2023-05-07T01:42:01;8.70;;;5.50;;
76964;SDS011;65903;51.452;7.198;2023-05-07T01:43:06;8.80;;;5.35;;
76964;SDS011;65903;51.452;7.198;2023-05-07T01:44:07;8.30;;;6.30;;
76964;SDS011;65903;51.452;7.198;2023-05-07T01:45:11;7.38;;;5.72;;
76964;SDS011;65903;51.452;7.198;2023-05-07T01:46:14;9.82;;;6.38;;
76964;SDS011;65903;51.452;7.198;2023-05-07T01:47:15;9.40;;;6.15;;
76964;SDS011;65903;51.452;7.198;2023-05-07T01:48:18;6.85;;;5.72;;
76964;SDS011;65903;51.452;7.198;2023-05-07T01:49:19;8.50;;;6.03;;
76964;SDS011;65903;51.452;7.198;2023-05-07T01:50:22;9.75;;;7.13;;
76964;SDS011;65903;51.452;7.198;2023-05-07T01:51:23;9.07;;;5.88;;
76964;SDS011;65903;51.452;7.198;2023-05-07T01:52:27;9.85;;;5.78;;
76964;SDS011;65903;51.452;7.198;2023-05-07T01:53:35;8.68;;;6.15;;
76964;SDS011;65903;51.452;7.198;2023-05-07T01:54:38;7.82;;;6.05;;
76964;SDS011;65903;51.452;7.198;2023-05-07T01:55:39;8.52;;;5.93;;
76964;SDS011;65903;51.452;7.198;2023-05-07T01:56:40;9.07;;;6.50;;
76964;SDS011;65903;51.452;7.198;2023-05-07T01:57:43;8.88;;;6.25;;
76964;SDS011;65903;51.452;7.198;2023-05-07T01:58:46;9.13;;;7.18;;
76964;SDS011;65903;51.452;7.198;2023-05-07T01:59:52;10.93;;;6.75;;
76964;SDS011;65903;51.452;7.198;2023-05-07T02:00:53;7.60;;;6.07;;
76964;SDS011;65903;51.452;7.198;2023-05-07T02:01:54;9.00;;;6.30;;
76964;SDS011;65903;51.452;7.198;2023-05-07T02:02:54;11.25;;;6.93;;
76964;SDS011;65903;51.452;7.198;2023-05-07T02:03:55;7.30;;;6.40;;
76964;SDS011;65903;51.452;7.198;2023-05-07T02:05:01;9.05;;;6.15;;
76964;SDS011;65903;51.452;7.198;2023-05-07T02:06:04;9.02;;;6.30;;
76964;SDS011;65903;51.452;7.198;2023-05-07T02:07:10;8.00;;;5.72;;
76964;SDS011;65903;51.452;7.198;2023-05-07T02:08:13;9.80;;;6.40;;
76964;SDS011;65903;51.452;7.198;2023-05-07T02:09:14;8.48;;;5.82;;
76964;SDS011;65903;51.452;7.198;2023-05-07T02:10:19;8.50;;;6.13;;
76964;SDS011;65903;51.452;7.198;2023-05-07T02:11:23;8.48;;;6.10;;
76964;SDS011;65903;51.452;7.198;2023-05-07T02:12:23;10.07;;;7.18;;
76964;SDS011;65903;51.452;7.198;2023-05-07T02:13:26;11.82;;;7.00;;
76964;SDS011;65903;51.452;7.198;2023-05-07T02:14:29;10.02;;;5.90;;
76964;SDS011;65903;51.452;7.198;2023-05-07T02:15:32;8.95;;;6.32;;
76964;SDS011;65903;51.452;7.198;2023-05-07T02:16:33;10.10;;;6.35;;
76964;SDS011;65903;51.452;7.198;2023-05-07T02:17:38;10.20;;;6.35;;
76964;SDS011;65903;51.452;7.198;2023-05-07T02:18:42;8.68;;;5.70;;
76964;SDS011;65903;51.452;7.198;2023-05-07T02:19:45;10.05;;;6.55;;
76964;SDS011;65903;51.452;7.198;2023-05-07T02:20:48;11.45;;;6.65;;
76964;SDS011;65903;51.452;7.198;2023-05-07T02:21:51;8.80;;;6.63;;
76964;SDS011;65903;51.452;7.198;2023-05-07T02:22:57;11.32;;;6.57;;
76964;SDS011;65903;51.452;7.198;2023-05-07T02:23:58;11.90;;;8.07;;
76964;SDS011;65903;51.452;7.198;2023-05-07T02:24:59;9.73;;;7.05;;
76964;SDS011;65903;51.452;7.198;2023-05-07T02:26:00;8.85;;;6.85;;
76964;SDS011;65903;51.452;7.198;2023-05-07T02:27:00;8.63;;;7.25;;
76964;SDS011;65903;51.452;7.198;2023-05-07T02:28:03;9.73;;;7.50;;
76964;SDS011;65903;51.452;7.198;2023-05-07T02:29:05;9.32;;;7.40;;
76964;SDS011;65903;51.452;7.198;2023-05-07T02:30:10;12.68;;;7.72;;
76964;SDS011;65903;51.452;7.198;2023-05-07T02:31:13;8.25;;;6.53;;
76964;SDS011;65903;51.452;7.198;2023-05-07T02:32:14;10.63;;;6.90;;
76964;SDS011;65903;51.452;7.198;2023-05-07T02:33:20;10.25;;;7.90;;
76964;SDS011;65903;51.452;7.198;2023-05-07T02:34:23;10.30;;;7.18;;
76964;SDS011;65903;51.452;7.198;2023-05-07T02:36:27;9.75;;;7.15;;
76964;SDS011;65903;51.452;7.198;2023-05-07T02:37:30;10.52;;;6.93;;
76964;SDS011;65903;51.452;7.198;2023-05-07T02:38:31;10.15;;;7.85;;
76964;SDS011;65903;51.452;7.198;2023-05-07T02:39:32;7.60;;;6.53;;
76964;SDS011;65903;51.452;7.198;2023-05-07T02:40:35;8.90;;;7.10;;
76964;SDS011;65903;51.452;7.198;2023-05-07T02:41:44;8.82;;;6.70;;
76964;SDS011;65903;51.452;7.198;2023-05-07T02:42:47;9.85;;;7.65;;
76964;SDS011;65903;51.452;7.198;2023-05-07T02:44:51;10.32;;;7.72;;
76964;SDS011;65903;51.452;7.198;2023-05-07T02:46:04;11.65;;;7.03;;
76964;SDS011;65903;51.452;7.198;2023-05-07T02:47:09;10.45;;;7.30;;
76964;SDS011;65903;51.452;7.198;2023-05-07T02:48:10;11.57;;;8.00;;
76964;SDS011;65903;51.452;7.198;2023-05-07T02:49:14;10.75;;;7.82;;
76964;SDS011;65903;51.452;7.198;2023-05-07T02:51:20;11.45;;;7.45;;
76964;SDS011;65903;51.452;7.198;2023-05-07T02:52:22;9.30;;;6.88;;
76964;SDS011;65903;51.452;7.198;2023-05-07T02:53:23;10.80;;;6.80;;
76964;SDS011;65903;51.452;7.198;2023-05-07T02:54:26;10.45;;;6.85;;
76964;SDS011;65903;51.452;7.198;2023-05-07T02:55:32;10.00;;;7.15;;
76964;SDS011;65903;51.452;7.198;2023-05-07T02:56:35;10.00;;;7.20;;
76964;SDS011;65903;51.452;7.198;2023-05-07T02:57:40;9.40;;;7.38;;
76964;SDS011;65903;51.452;7.198;2023-05-07T02:58:41;9.32;;;6.88;;
76964;SDS011;65903;51.452;7.198;2023-05-07T02:59:47;9.88;;;8.13;;
76964;SDS011;65903;51.452;7.198;2023-05-07T03:00:51;9.52;;;7.03;;
76964;SDS011;65903;51.452;7.198;2023-05-07T03:01:57;9.48;;;7.25;;
76964;SDS011;65903;51.452;7.198;2023-05-07T03:03:00;10.07;;;7.30;;
76964;SDS011;65903;51.452;7.198;2023-05-07T03:04:03;8.70;;;6.28;;
76964;SDS011;65903;51.452;7.198;2023-05-07T03:05:06;9.07;;;6.63;;
76964;SDS011;65903;51.452;7.198;2023-05-07T03:06:08;10.52;;;7.07;;
76964;SDS011;65903;51.452;7.198;2023-05-07T03:07:09;9.63;;;7.78;;
76964;SDS011;65903;51.452;7.198;2023-05-07T03:09:12;9.40;;;6.68;;
76964;SDS011;65903;51.452;7.198;2023-05-07T03:10:13;9.15;;;6.75;;
76964;SDS011;65903;51.452;7.198;2023-05-07T03:11:16;9.85;;;7.10;;
76964;SDS011;65903;51.452;7.198;2023-05-07T03:12:17;10.30;;;6.75;;
76964;SDS011;65903;51.452;7.198;2023-05-07T03:13:22;11.05;;;7.55;;
76964;SDS011;65903;51.452;7.198;2023-05-07T03:14:23;9.30;;;6.72;;
76964;SDS011;65903;51.452;7.198;2023-05-07T03:15:23;10.43;;;6.85;;
76964;SDS011;65903;51.452;7.198;2023-05-07T03:17:27;13.68;;;6.88;;
76964;SDS011;65903;51.452;7.198;2023-05-07T03:18:30;8.85;;;7.03;;
76964;SDS011;65903;51.452;7.198;2023-05-07T03:19:33;10.43;;;7.13;;
76964;SDS011;65903;51.452;7.198;2023-05-07T03:20:38;10.48;;;6.95;;
76964;SDS011;65903;51.452;7.198;2023-05-07T03:21:41;10.10;;;7.32;;
76964;SDS011;65903;51.452;7.198;2023-05-07T03:22:47;10.30;;;7.68;;
76964;SDS011;65903;51.452;7.198;2023-05-07T03:23:53;10.10;;;6.70;;
76964;SDS011;65903;51.452;7.198;2023-05-07T03:24:58;9.40;;;7.35;;
76964;SDS011;65903;51.452;7.198;2023-05-07T03:26:00;11.23;;;7.68;;
76964;SDS011;65903;51.452;7.198;2023-05-07T03:27:05;11.05;;;7.57;;
76964;SDS011;65903;51.452;7.198;2023-05-07T03:28:06;11.18;;;8.15;;
76964;SDS011;65903;51.452;7.198;2023-05-07T03:29:09;10.00;;;7.72;;
76964;SDS011;65903;51.452;7.198;2023-05-07T03:30:10;14.82;;;8.57;;
76964;SDS011;65903;51.452;7.198;2023-05-07T03:31:13;10.23;;;7.78;;
76964;SDS011;65903;51.452;7.198;2023-05-07T03:32:18;10.70;;;8.07;;
76964;SDS011;65903;51.452;7.198;2023-05-07T03:33:21;10.15;;;7.43;;
76964;SDS011;65903;51.452;7.198;2023-05-07T03:34:24;10.00;;;7.88;;
76964;SDS011;65903;51.452;7.198;2023-05-07T03:35:27;11.10;;;7.70;;
76964;SDS011;65903;51.452;7.198;2023-05-07T03:36:28;8.77;;;7.15;;
76964;SDS011;65903;51.452;7.198;2023-05-07T03:37:31;9.63;;;6.95;;
76964;SDS011;65903;51.452;7.198;2023-05-07T03:38:37;9.18;;;7.03;;
76964;SDS011;65903;51.452;7.198;2023-05-07T03:39:38;11.48;;;7.50;;
76964;SDS011;65903;51.452;7.198;2023-05-07T03:40:41;8.57;;;6.90;;
76964;SDS011;65903;51.452;7.198;2023-05-07T03:41:42;12.95;;;8.02;;
76964;SDS011;65903;51.452;7.198;2023-05-07T03:42:45;11.95;;;8.25;;
76964;SDS011;65903;51.452;7.198;2023-05-07T03:43:45;13.50;;;8.65;;
76964;SDS011;65903;51.452;7.198;2023-05-07T03:45:51;13.30;;;8.93;;
76964;SDS011;65903;51.452;7.198;2023-05-07T03:46:54;13.20;;;8.93;;
76964;SDS011;65903;51.452;7.198;2023-05-07T03:49:02;10.73;;;8.27;;
76964;SDS011;65903;51.452;7.198;2023-05-07T03:50:05;11.45;;;8.35;;
76964;SDS011;65903;51.452;7.198;2023-05-07T03:51:06;11.80;;;9.02;;
76964;SDS011;65903;51.452;7.198;2023-05-07T03:52:07;11.75;;;8.40;;
76964;SDS011;65903;51.452;7.198;2023-05-07T03:53:10;11.23;;;8.32;;
76964;SDS011;65903;51.452;7.198;2023-05-07T03:54:13;11.57;;;8.35;;
76964;SDS011;65903;51.452;7.198;2023-05-07T03:55:16;10.50;;;8.60;;
76964;SDS011;65903;51.452;7.198;2023-05-07T03:56:17;12.52;;;9.25;;
76964;SDS011;65903;51.452;7.198;2023-05-07T03:57:21;11.77;;;9.02;;
76964;SDS011;65903;51.452;7.198;2023-05-07T03:58:24;10.25;;;8.27;;
76964;SDS011;65903;51.452;7.198;2023-05-07T03:59:28;13.63;;;9.52;;
76964;SDS011;65903;51.452;7.198;2023-05-07T04:00:31;12.18;;;8.93;;
76964;SDS011;65903;51.452;7.198;2023-05-07T04:01:34;12.00;;;8.80;;
76964;SDS011;65903;51.452;7.198;2023-05-07T04:02:35;12.20;;;9.23;;
76964;SDS011;65903;51.452;7.198;2023-05-07T04:03:36;12.50;;;9.77;;
76964;SDS011;65903;51.452;7.198;2023-05-07T04:04:41;10.85;;;9.25;;
76964;SDS011;65903;51.452;7.198;2023-05-07T04:05:42;12.80;;;8.48;;
76964;SDS011;65903;51.452;7.198;2023-05-07T04:07:50;12.88;;;9.52;;
76964;SDS011;65903;51.452;7.198;2023-05-07T04:08:51;12.43;;;9.38;;
76964;SDS011;65903;51.452;7.198;2023-05-07T04:09:54;13.32;;;9.52;;
76964;SDS011;65903;51.452;7.198;2023-05-07T04:10:55;13.10;;;9.50;;
76964;SDS011;65903;51.452;7.198;2023-05-07T04:11:58;13.32;;;9.60;;
76964;SDS011;65903;51.452;7.198;2023-05-07T04:12:59;13.88;;;9.30;;
76964;SDS011;65903;51.452;7.198;2023-05-07T04:14:00;13.50;;;10.88;;
76964;SDS011;65903;51.452;7.198;2023-05-07T04:15:01;17.65;;;11.35;;
76964;SDS011;65903;51.452;7.198;2023-05-07T04:16:04;18.35;;;10.65;;
76964;SDS011;65903;51.452;7.198;2023-05-07T04:17:07;16.35;;;10.25;;
76964;SDS011;65903;51.452;7.198;2023-05-07T04:18:10;13.88;;;10.60;;
76964;SDS011;65903;51.452;7.198;2023-05-07T04:19:10;12.75;;;10.63;;
76964;SDS011;65903;51.452;7.198;2023-05-07T04:20:16;15.40;;;11.32;;
76964;SDS011;65903;51.452;7.198;2023-05-07T04:21:20;15.93;;;12.38;;
76964;SDS011;65903;51.452;7.198;2023-05-07T04:22:23;15.45;;;11.55;;
76964;SDS011;65903;51.452;7.198;2023-05-07T04:23:27;19.42;;;12.98;;
76964;SDS011;65903;51.452;7.198;2023-05-07T04:24:33;16.75;;;11.70;;
76964;SDS011;65903;51.452;7.198;2023-05-07T04:25:36;19.92;;;13.90;;
76964;SDS011;65903;51.452;7.198;2023-05-07T04:26:39;18.60;;;14.88;;
76964;SDS011;65903;51.452;7.198;2023-05-07T04:27:40;17.92;;;13.32;;
76964;SDS011;65903;51.452;7.198;2023-05-07T04:28:43;19.25;;;13.90;;
76964;SDS011;65903;51.452;7.198;2023-05-07T04:29:45;19.58;;;13.75;;
76964;SDS011;65903;51.452;7.198;2023-05-07T04:30:48;17.15;;;12.93;;
76964;SDS011;65903;51.452;7.198;2023-05-07T04:31:51;18.52;;;14.00;;
76964;SDS011;65903;51.452;7.198;2023-05-07T04:32:56;18.55;;;13.57;;
76964;SDS011;65903;51.452;7.198;2023-05-07T04:33:57;19.70;;;14.05;;
76964;SDS011;65903;51.452;7.198;2023-05-07T04:34:58;18.40;;;13.60;;
76964;SDS011;65903;51.452;7.198;2023-05-07T04:36:05;20.95;;;14.45;;
76964;SDS011;65903;51.452;7.198;2023-05-07T04:37:05;22.23;;;14.05;;
76964;SDS011;65903;51.452;7.198;2023-05-07T04:38:06;19.42;;;13.70;;
76964;SDS011;65903;51.452;7.198;2023-05-07T04:39:09;19.30;;;13.98;;
76964;SDS011;65903;51.452;7.198;2023-05-07T04:40:11;20.52;;;14.48;;
76964;SDS011;65903;51.452;7.198;2023-05-07T04:41:12;21.55;;;14.60;;
76964;SDS011;65903;51.452;7.198;2023-05-07T04:42:18;21.98;;;15.00;;
76964;SDS011;65903;51.452;7.198;2023-05-07T04:43:19;19.73;;;14.27;;
76964;SDS011;65903;51.452;7.198;2023-05-07T04:44:20;19.73;;;14.82;;
76964;SDS011;65903;51.452;7.198;2023-05-07T04:45:23;22.27;;;14.50;;
76964;SDS011;65903;51.452;7.198;2023-05-07T04:46:26;18.88;;;14.43;;
76964;SDS011;65903;51.452;7.198;2023-05-07T04:47:27;21.73;;;14.82;;
76964;SDS011;65903;51.452;7.198;2023-05-07T04:48:35;17.92;;;13.38;;
76964;SDS011;65903;51.452;7.198;2023-05-07T04:49:38;19.35;;;14.48;;
76964;SDS011;65903;51.452;7.198;2023-05-07T04:50:44;21.65;;;15.43;;
76964;SDS011;65903;51.452;7.198;2023-05-07T04:51:45;17.17;;;13.30;;
76964;SDS011;65903;51.452;7.198;2023-05-07T04:52:48;19.25;;;13.93;;
76964;SDS011;65903;51.452;7.198;2023-05-07T04:53:53;18.13;;;13.98;;
76964;SDS011;65903;51.452;7.198;2023-05-07T04:54:58;20.48;;;14.73;;
76964;SDS011;65903;51.452;7.198;2023-05-07T04:55:59;18.17;;;14.43;;
76964;SDS011;65903;51.452;7.198;2023-05-07T04:57:00;19.40;;;12.90;;
76964;SDS011;65903;51.452;7.198;2023-05-07T04:58:02;17.52;;;13.07;;
76964;SDS011;65903;51.452;7.198;2023-05-07T04:59:07;19.55;;;12.98;;
76964;SDS011;65903;51.452;7.198;2023-05-07T05:00:08;18.60;;;13.23;;
76964;SDS011;65903;51.452;7.198;2023-05-07T05:01:09;17.73;;;13.30;;
76964;SDS011;65903;51.452;7.198;2023-05-07T05:02:15;16.25;;;12.68;;
76964;SDS011;65903;51.452;7.198;2023-05-07T05:03:16;18.05;;;12.88;;
76964;SDS011;65903;51.452;7.198;2023-05-07T05:04:16;18.73;;;12.90;;
76964;SDS011;65903;51.452;7.198;2023-05-07T05:05:19;17.15;;;12.70;;
76964;SDS011;65903;51.452;7.198;2023-05-07T05:06:23;15.82;;;12.90;;
76964;SDS011;65903;51.452;7.198;2023-05-07T05:07:26;15.48;;;12.02;;
76964;SDS011;65903;51.452;7.198;2023-05-07T05:09:30;16.88;;;10.77;;
76964;SDS011;65903;51.452;7.198;2023-05-07T05:10:33;16.67;;;12.85;;
76964;SDS011;65903;51.452;7.198;2023-05-07T05:11:38;15.82;;;11.60;;
76964;SDS011;65903;51.452;7.198;2023-05-07T05:12:39;14.48;;;11.27;;
76964;SDS011;65903;51.452;7.198;2023-05-07T05:13:39;16.45;;;11.60;;
76964;SDS011;65903;51.452;7.198;2023-05-07T05:15:45;15.57;;;11.52;;
76964;SDS011;65903;51.452;7.198;2023-05-07T05:16:48;14.45;;;11.30;;
76964;SDS011;65903;51.452;7.198;2023-05-07T05:17:49;16.00;;;11.45;;
76964;SDS011;65903;51.452;7.198;2023-05-07T05:18:50;15.02;;;11.75;;
76964;SDS011;65903;51.452;7.198;2023-05-07T05:19:54;16.45;;;11.57;;
76964;SDS011;65903;51.452;7.198;2023-05-07T05:20:55;14.80;;;10.82;;
76964;SDS011;65903;51.452;7.198;2023-05-07T05:21:58;13.68;;;10.43;;
76964;SDS011;65903;51.452;7.198;2023-05-07T05:23:01;15.27;;;11.50;;
76964;SDS011;65903;51.452;7.198;2023-05-07T05:24:04;14.05;;;10.40;;
76964;SDS011;65903;51.452;7.198;2023-05-07T05:25:08;14.68;;;11.18;;
76964;SDS011;65903;51.452;7.198;2023-05-07T05:26:13;13.43;;;10.57;;
76964;SDS011;65903;51.452;7.198;2023-05-07T05:27:16;13.77;;;10.80;;
76964;SDS011;65903;51.452;7.198;2023-05-07T05:28:20;13.98;;;10.85;;
76964;SDS011;65903;51.452;7.198;2023-05-07T05:29:23;15.38;;;10.98;;
76964;SDS011;65903;51.452;7.198;2023-05-07T05:30:30;13.77;;;10.68;;
76964;SDS011;65903;51.452;7.198;2023-05-07T05:31:33;13.50;;;10.10;;
76964;SDS011;65903;51.452;7.198;2023-05-07T05:32:37;13.35;;;9.75;;
76964;SDS011;65903;51.452;7.198;2023-05-07T05:33:38;14.27;;;9.93;;
76964;SDS011;65903;51.452;7.198;2023-05-07T05:34:39;12.32;;;9.45;;
76964;SDS011;65903;51.452;7.198;2023-05-07T05:35:42;15.05;;;9.60;;
76964;SDS011;65903;51.452;7.198;2023-05-07T05:36:43;13.48;;;9.43;;
76964;SDS011;65903;51.452;7.198;2023-05-07T05:37:46;12.50;;;9.38;;
76964;SDS011;65903;51.452;7.198;2023-05-07T05:38:49;11.95;;;9.30;;
76964;SDS011;65903;51.452;7.198;2023-05-07T05:39:50;11.13;;;9.27;;
76964;SDS011;65903;51.452;7.198;2023-05-07T05:40:55;13.05;;;9.20;;
76964;SDS011;65903;51.452;7.198;2023-05-07T05:42:00;13.40;;;10.55;;
76964;SDS011;65903;51.452;7.198;2023-05-07T05:43:01;14.48;;;10.02;;
76964;SDS011;65903;51.452;7.198;2023-05-07T05:44:03;12.55;;;10.00;;
76964;SDS011;65903;51.452;7.198;2023-05-07T05:46:05;12.43;;;9.25;;
76964;SDS011;65903;51.452;7.198;2023-05-07T05:47:12;14.02;;;10.20;;
76964;SDS011;65903;51.452;7.198;2023-05-07T05:48:17;14.85;;;9.30;;
76964;SDS011;65903;51.452;7.198;2023-05-07T05:49:25;13.45;;;9.65;;
76964;SDS011;65903;51.452;7.198;2023-05-07T05:50:35;11.90;;;8.35;;
76964;SDS011;65903;51.452;7.198;2023-05-07T05:51:39;10.75;;;8.52;;
76964;SDS011;65903;51.452;7.198;2023-05-07T05:52:42;10.88;;;8.00;;
76964;SDS011;65903;51.452;7.198;2023-05-07T05:53:42;9.93;;;8.35;;
76964;SDS011;65903;51.452;7.198;2023-05-07T05:54:46;10.75;;;8.35;;
76964;SDS011;65903;51.452;7.198;2023-05-07T05:55:49;10.27;;;7.47;;
76964;SDS011;65903;51.452;7.198;2023-05-07T05:56:49;9.18;;;7.18;;
76964;SDS011;65903;51.452;7.198;2023-05-07T05:57:50;10.73;;;7.68;;
76964;SDS011;65903;51.452;7.198;2023-05-07T05:58:51;9.15;;;7.40;;
76964;SDS011;65903;51.452;7.198;2023-05-07T05:59:54;11.27;;;7.00;;
76964;SDS011;65903;51.452;7.198;2023-05-07T06:01:02;9.82;;;7.50;;
76964;SDS011;65903;51.452;7.198;2023-05-07T06:02:05;8.98;;;6.80;;
76964;SDS011;65903;51.452;7.198;2023-05-07T06:03:09;9.13;;;6.85;;
76964;SDS011;65903;51.452;7.198;2023-05-07T06:04:10;9.48;;;6.82;;
76964;SDS011;65903;51.452;7.198;2023-05-07T06:05:14;8.90;;;6.47;;
76964;SDS011;65903;51.452;7.198;2023-05-07T06:06:17;9.32;;;7.20;;
76964;SDS011;65903;51.452;7.198;2023-05-07T06:07:21;8.40;;;6.45;;
76964;SDS011;65903;51.452;7.198;2023-05-07T06:08:22;7.80;;;6.07;;
76964;SDS011;65903;51.452;7.198;2023-05-07T06:09:25;8.18;;;5.57;;
76964;SDS011;65903;51.452;7.198;2023-05-07T06:10:29;8.82;;;6.10;;
76964;SDS011;65903;51.452;7.198;2023-05-07T06:11:35;8.05;;;6.40;;
76964;SDS011;65903;51.452;7.198;2023-05-07T06:12:39;8.57;;;5.93;;
76964;SDS011;65903;51.452;7.198;2023-05-07T06:13:42;8.52;;;6.28;;
76964;SDS011;65903;51.452;7.198;2023-05-07T06:14:48;9.10;;;6.72;;
76964;SDS011;65903;51.452;7.198;2023-05-07T06:15:53;7.60;;;5.72;;
76964;SDS011;65903;51.452;7.198;2023-05-07T06:16:56;8.13;;;5.88;;
76964;SDS011;65903;51.452;7.198;2023-05-07T06:18:02;7.65;;;6.22;;
76964;SDS011;65903;51.452;7.198;2023-05-07T06:19:03;8.40;;;6.20;;
76964;SDS011;65903;51.452;7.198;2023-05-07T06:20:04;7.43;;;5.80;;
76964;SDS011;65903;51.452;7.198;2023-05-07T06:21:05;9.80;;;5.57;;
76964;SDS011;65903;51.452;7.198;2023-05-07T06:22:08;7.95;;;5.88;;
76964;SDS011;65903;51.452;7.198;2023-05-07T06:23:14;8.05;;;5.78;;
76964;SDS011;65903;51.452;7.198;2023-05-07T06:24:17;6.75;;;5.65;;
76964;SDS011;65903;51.452;7.198;2023-05-07T06:25:20;7.07;;;5.60;;
76964;SDS011;65903;51.452;7.198;2023-05-07T06:26:21;6.88;;;5.72;;
76964;SDS011;65903;51.452;7.198;2023-05-07T06:27:21;7.43;;;5.90;;
76964;SDS011;65903;51.452;7.198;2023-05-07T06:28:22;7.85;;;5.50;;